sensor_id;sensor_type;location;lat;lon;timestamp;temperature;humidity
29255;DHT22;16277;48.890;2.306;2023-05-10T00:06:12;15.80;99.90
29255;DHT22;16277;48.890;2.306;2023-05-10T00:21:16;15.70;99.90
29255;DHT22;16277;48.890;2.306;2023-05-10T00:36:21;15.20;99.90
29255;DHT22;16277;48.890;2.306;2023-05-10T00:51:25;14.80;99.90
29255;DHT22;16277;48.890;2.306;2023-05-10T01:06:30;14.80;99.90
29255;DHT22;16277;48.890;2.306;2023-05-10T01:21:41;15.20;99.90
29255;DHT22;16277;48.890;2.306;2023-05-10T01:36:51;15.20;99.90
29255;DHT22;16277;48.890;2.306;2023-05-10T01:52:00;15.50;99.90
29255;DHT22;16277;48.890;2.306;2023-05-10T02:07:08;15.40;99.90
29255;DHT22;16277;48.890;2.306;2023-05-10T02:22:15;15.10;99.90
29255;DHT22;16277;48.890;2.306;2023-05-10T02:37:20;15.10;99.90
29255;DHT22;16277;48.890;2.306;2023-05-10T02:52:29;14.80;99.90
29255;DHT22;16277;48.890;2.306;2023-05-10T03:07:35;14.90;99.90
29255;DHT22;16277;48.890;2.306;2023-05-10T03:22:44;15.20;99.90
29255;DHT22;16277;48.890;2.306;2023-05-10T03:37:49;15.50;99.90
29255;DHT22;16277;48.890;2.306;2023-05-10T03:52:54;15.30;99.90
29255;DHT22;16277;48.890;2.306;2023-05-10T04:07:58;15.10;99.90
29255;DHT22;16277;48.890;2.306;2023-05-10T04:23:03;15.30;99.90
29255;DHT22;16277;48.890;2.306;2023-05-10T04:38:07;15.10;99.90
29255;DHT22;16277;48.890;2.306;2023-05-10T04:53:12;15.60;99.90
29255;DHT22;16277;48.890;2.306;2023-05-10T05:08:18;15.70;99.90
29255;DHT22;16277;48.890;2.306;2023-05-10T05:23:22;16.10;99.90
29255;DHT22;16277;48.890;2.306;2023-05-10T05:38:38;15.30;99.90
29255;DHT22;16277;48.890;2.306;2023-05-10T05:53:44;14.90;99.90
29255;DHT22;16277;48.890;2.306;2023-05-10T06:08:49;14.90;99.90
29255;DHT22;16277;48.890;2.306;2023-05-10T06:23:54;14.90;99.90
29255;DHT22;16277;48.890;2.306;2023-05-10T06:38:59;14.60;99.90
29255;DHT22;16277;48.890;2.306;2023-05-10T06:54:03;14.70;99.90
29255;DHT22;16277;48.890;2.306;2023-05-10T07:09:07;15.00;99.90
29255;DHT22;16277;48.890;2.306;2023-05-10T07:24:12;14.80;99.90
29255;DHT22;16277;48.890;2.306;2023-05-10T07:39:16;14.90;99.90
29255;DHT22;16277;48.890;2.306;2023-05-10T07:54:30;15.00;99.90
29255;DHT22;16277;48.890;2.306;2023-05-10T08:09:34;15.10;99.90
29255;DHT22;16277;48.890;2.306;2023-05-10T08:24:38;14.90;99.90
29255;DHT22;16277;48.890;2.306;2023-05-10T08:39:45;15.60;99.90
29255;DHT22;16277;48.890;2.306;2023-05-10T08:54:51;15.30;99.90
29255;DHT22;16277;48.890;2.306;2023-05-10T09:09:56;15.50;99.90
29255;DHT22;16277;48.890;2.306;2023-05-10T09:25:09;15.50;99.90
29255;DHT22;16277;48.890;2.306;2023-05-10T09:40:15;15.80;99.90
29255;DHT22;16277;48.890;2.306;2023-05-10T09:55:22;16.10;99.90
29255;DHT22;16277;48.890;2.306;2023-05-10T10:10:27;16.10;99.90
29255;DHT22;16277;48.890;2.306;2023-05-10T10:25:32;16.50;99.90
29255;DHT22;16277;48.890;2.306;2023-05-10T10:40:37;16.30;99.90
29255;DHT22;16277;48.890;2.306;2023-05-10T10:55:47;17.10;99.90
29255;DHT22;16277;48.890;2.306;2023-05-10T11:11:02;16.50;99.90
29255;DHT22;16277;48.890;2.306;2023-05-10T11:26:09;16.90;99.90
29255;DHT22;16277;48.890;2.306;2023-05-10T11:41:15;16.80;99.90
29255;DHT22;16277;48.890;2.306;2023-05-10T11:56:21;17.20;99.90
29255;DHT22;16277;48.890;2.306;2023-05-10T12:11:28;17.70;99.90
29255;DHT22;16277;48.890;2.306;2023-05-10T12:26:33;18.00;99.90
29255;DHT22;16277;48.890;2.306;2023-05-10T12:42:00;18.00;99.90
29255;DHT22;16277;48.890;2.306;2023-05-10T12:57:04;18.50;99.90
29255;DHT22;16277;48.890;2.306;2023-05-10T13:12:09;18.20;99.90
29255;DHT22;16277;48.890;2.306;2023-05-10T13:27:13;19.20;99.90
29255;DHT22;16277;48.890;2.306;2023-05-10T13:42:18;19.50;99.90
29255;DHT22;16277;48.890;2.306;2023-05-10T13:57:23;19.70;99.90
29255;DHT22;16277;48.890;2.306;2023-05-10T14:12:27;21.90;99.90
29255;DHT22;16277;48.890;2.306;2023-05-10T14:27:32;24.90;99.00
29255;DHT22;16277;48.890;2.306;2023-05-10T14:42:36;22.40;93.60
29255;DHT22;16277;48.890;2.306;2023-05-10T14:57:41;28.50;75.90
29255;DHT22;16277;48.890;2.306;2023-05-10T15:12:47;25.90;83.70
29255;DHT22;16277;48.890;2.306;2023-05-10T15:27:51;25.10;79.40
29255;DHT22;16277;48.890;2.306;2023-05-10T15:42:55;27.20;73.80
29255;DHT22;16277;48.890;2.306;2023-05-10T15:58:00;28.10;67.80
29255;DHT22;16277;48.890;2.306;2023-05-10T16:13:05;23.30;81.90
29255;DHT22;16277;48.890;2.306;2023-05-10T16:28:09;24.50;73.40
29255;DHT22;16277;48.890;2.306;2023-05-10T16:43:13;24.40;79.20
29255;DHT22;16277;48.890;2.306;2023-05-10T16:58:18;25.80;76.80
29255;DHT22;16277;48.890;2.306;2023-05-10T17:13:23;24.70;76.70
29255;DHT22;16277;48.890;2.306;2023-05-10T17:28:27;23.10;83.40
29255;DHT22;16277;48.890;2.306;2023-05-10T17:43:32;22.60;86.60
29255;DHT22;16277;48.890;2.306;2023-05-10T17:58:36;21.70;90.10
29255;DHT22;16277;48.890;2.306;2023-05-10T18:13:41;20.60;92.20
29255;DHT22;16277;48.890;2.306;2023-05-10T18:28:45;20.30;93.40
29255;DHT22;16277;48.890;2.306;2023-05-10T18:43:50;20.60;93.00
29255;DHT22;16277;48.890;2.306;2023-05-10T18:58:54;20.10;94.90
29255;DHT22;16277;48.890;2.306;2023-05-10T19:13:58;19.80;95.30
29255;DHT22;16277;48.890;2.306;2023-05-10T19:29:03;19.20;96.80
29255;DHT22;16277;48.890;2.306;2023-05-10T19:44:08;18.70;98.30
29255;DHT22;16277;48.890;2.306;2023-05-10T19:59:12;18.60;98.80
29255;DHT22;16277;48.890;2.306;2023-05-10T20:14:17;18.70;99.00
29255;DHT22;16277;48.890;2.306;2023-05-10T20:29:22;18.80;99.00
29255;DHT22;16277;48.890;2.306;2023-05-10T20:44:26;18.90;99.30
29255;DHT22;16277;48.890;2.306;2023-05-10T20:59:31;19.10;99.30
29255;DHT22;16277;48.890;2.306;2023-05-10T21:14:35;18.20;99.90
29255;DHT22;16277;48.890;2.306;2023-05-10T21:29:40;18.40;99.90
29255;DHT22;16277;48.890;2.306;2023-05-10T21:44:44;18.30;99.90
29255;DHT22;16277;48.890;2.306;2023-05-10T21:59:49;18.20;99.90
29255;DHT22;16277;48.890;2.306;2023-05-10T22:14:53;18.00;99.90
29255;DHT22;16277;48.890;2.306;2023-05-10T22:30:12;18.30;99.90
29255;DHT22;16277;48.890;2.306;2023-05-10T22:45:17;18.40;99.90
29255;DHT22;16277;48.890;2.306;2023-05-10T23:00:22;17.90;99.90
29255;DHT22;16277;48.890;2.306;2023-05-10T23:15:26;17.80;99.90
29255;DHT22;16277;48.890;2.306;2023-05-10T23:30:31;18.00;99.90
29255;DHT22;16277;48.890;2.306;2023-05-10T23:45:36;17.90;99.90
